Bankersmith, Texas
Current Conditions -  °F | °C
As of 10:15 AM on Wednesday 22 Oct 2014 (Local Time) from KT82 Reporting Station
Clear Clear  
Wind Chill: 67°   Ceiling: Unl
Heat Index: 67°   Visibility: 10mi
Dew Point: 55°   Wind: 3mph
Humidity: 64%   Direction: 150°SSE
Pressure: 30.15"   Gusts: NA
Location:  30.3069°N, 98.8978°W
Report Text: KT82 221515Z AUTO 15003KT 10SM CLR 20/13 A3015 RMK AO2 T01960126
Loading
Personal Weather Stations






























Interactive Weather Map New forecast layout! Learn more

10-Day Weather Forecast

Advertisements
Track Severe Weather on mobile